sensor_id;sensor_type;location;lat;lon;timestamp;pressure;altitude;pressure_sealevel;temperature;humidity
71105;BME280;58760;48.716;8.962;2023-02-22T00:00:49;96397.16;;;3.88;85.64
71105;BME280;58760;48.716;8.962;2023-02-22T00:03:16;96397.44;;;3.85;85.59
71105;BME280;58760;48.716;8.962;2023-02-22T00:05:44;96395.94;;;3.83;85.70
71105;BME280;58760;48.716;8.962;2023-02-22T00:08:12;96397.84;;;3.81;85.64
71105;BME280;58760;48.716;8.962;2023-02-22T00:10:38;96392.47;;;3.82;85.65
71105;BME280;58760;48.716;8.962;2023-02-22T00:13:06;96399.38;;;3.83;85.73
71105;BME280;58760;48.716;8.962;2023-02-22T00:15:32;96398.53;;;3.83;85.53
71105;BME280;58760;48.716;8.962;2023-02-22T00:17:58;96399.50;;;3.82;85.23
71105;BME280;58760;48.716;8.962;2023-02-22T00:20:23;96394.25;;;3.82;85.55
71105;BME280;58760;48.716;8.962;2023-02-22T00:22:50;96390.41;;;3.86;86.20
71105;BME280;58760;48.716;8.962;2023-02-22T00:25:17;96395.50;;;3.87;86.07
71105;BME280;58760;48.716;8.962;2023-02-22T00:27:44;96386.53;;;3.80;85.93
71105;BME280;58760;48.716;8.962;2023-02-22T00:30:17;96379.88;;;3.76;85.91
71105;BME280;58760;48.716;8.962;2023-02-22T00:32:47;96385.25;;;3.75;85.98
71105;BME280;58760;48.716;8.962;2023-02-22T00:35:14;96389.56;;;3.76;85.99
71105;BME280;58760;48.716;8.962;2023-02-22T00:37:40;96383.88;;;3.71;86.05
71105;BME280;58760;48.716;8.962;2023-02-22T00:40:10;96382.91;;;3.72;85.97
71105;BME280;58760;48.716;8.962;2023-02-22T00:42:36;96389.94;;;3.71;86.01
71105;BME280;58760;48.716;8.962;2023-02-22T00:45:01;96383.31;;;3.67;86.15
71105;BME280;58760;48.716;8.962;2023-02-22T00:47:27;96383.44;;;3.65;86.15
71105;BME280;58760;48.716;8.962;2023-02-22T00:49:54;96381.22;;;3.61;85.92
71105;BME280;58760;48.716;8.962;2023-02-22T00:52:19;96377.38;;;3.65;86.50
71105;BME280;58760;48.716;8.962;2023-02-22T00:54:45;96375.56;;;3.65;86.40
71105;BME280;58760;48.716;8.962;2023-02-22T00:57:11;96374.31;;;3.60;86.29
71105;BME280;58760;48.716;8.962;2023-02-22T00:59:36;96372.81;;;3.57;86.63
71105;BME280;58760;48.716;8.962;2023-02-22T01:02:02;96388.28;;;3.60;87.04
71105;BME280;58760;48.716;8.962;2023-02-22T01:04:28;96378.16;;;3.56;87.06
71105;BME280;58760;48.716;8.962;2023-02-22T01:06:53;96379.00;;;3.56;87.18
71105;BME280;58760;48.716;8.962;2023-02-22T01:09:20;96377.63;;;3.62;86.79
71105;BME280;58760;48.716;8.962;2023-02-22T01:11:47;96372.09;;;3.55;86.23
71105;BME280;58760;48.716;8.962;2023-02-22T01:14:12;96367.13;;;3.62;86.12
71105;BME280;58760;48.716;8.962;2023-02-22T01:16:38;96368.94;;;3.61;85.59
71105;BME280;58760;48.716;8.962;2023-02-22T01:19:03;96368.34;;;3.48;86.46
71105;BME280;58760;48.716;8.962;2023-02-22T01:21:30;96366.41;;;3.41;86.87
71105;BME280;58760;48.716;8.962;2023-02-22T01:23:55;96366.66;;;3.38;87.13
71105;BME280;58760;48.716;8.962;2023-02-22T01:26:21;96358.25;;;3.34;87.52
71105;BME280;58760;48.716;8.962;2023-02-22T01:28:46;96358.09;;;3.36;87.67
71105;BME280;58760;48.716;8.962;2023-02-22T01:31:11;96359.25;;;3.52;87.06
71105;BME280;58760;48.716;8.962;2023-02-22T01:33:37;96345.84;;;3.46;86.92
71105;BME280;58760;48.716;8.962;2023-02-22T01:36:03;96345.53;;;3.39;87.19
71105;BME280;58760;48.716;8.962;2023-02-22T01:38:36;96345.25;;;3.33;87.38
71105;BME280;58760;48.716;8.962;2023-02-22T01:41:03;96347.19;;;3.31;87.55
71105;BME280;58760;48.716;8.962;2023-02-22T01:43:30;96339.59;;;3.28;87.43
71105;BME280;58760;48.716;8.962;2023-02-22T01:48:35;96337.78;;;3.28;87.65
71105;BME280;58760;48.716;8.962;2023-02-22T01:53:38;96335.72;;;3.32;88.04
71105;BME280;58760;48.716;8.962;2023-02-22T01:56:04;96324.53;;;3.30;88.23
71105;BME280;58760;48.716;8.962;2023-02-22T01:58:32;96329.09;;;3.28;87.92
71105;BME280;58760;48.716;8.962;2023-02-22T02:00:59;96315.97;;;3.28;88.15
71105;BME280;58760;48.716;8.962;2023-02-22T02:03:28;96309.06;;;3.27;88.17
71105;BME280;58760;48.716;8.962;2023-02-22T02:06:00;96311.69;;;3.27;87.98
71105;BME280;58760;48.716;8.962;2023-02-22T02:10:56;96303.44;;;3.31;88.00
71105;BME280;58760;48.716;8.962;2023-02-22T02:13:24;96304.44;;;3.49;86.98
71105;BME280;58760;48.716;8.962;2023-02-22T02:15:53;96305.53;;;3.37;87.28
71105;BME280;58760;48.716;8.962;2023-02-22T02:18:19;96303.03;;;3.36;87.70
71105;BME280;58760;48.716;8.962;2023-02-22T02:32:20;96291.13;;;3.32;87.71
71105;BME280;58760;48.716;8.962;2023-02-22T02:37:51;96291.97;;;3.32;87.46
71105;BME280;58760;48.716;8.962;2023-02-22T02:40:40;96286.44;;;3.26;87.60
71105;BME280;58760;48.716;8.962;2023-02-22T02:46:14;96268.78;;;3.28;87.68
71105;BME280;58760;48.716;8.962;2023-02-22T02:48:50;96270.69;;;3.26;88.01
71105;BME280;58760;48.716;8.962;2023-02-22T02:51:20;96279.66;;;3.23;88.22
71105;BME280;58760;48.716;8.962;2023-02-22T02:53:47;96270.84;;;3.24;88.13
71105;BME280;58760;48.716;8.962;2023-02-22T02:56:16;96268.34;;;3.23;87.89
71105;BME280;58760;48.716;8.962;2023-02-22T02:58:49;96275.09;;;3.15;87.90
71105;BME280;58760;48.716;8.962;2023-02-22T03:01:34;96267.38;;;3.14;87.71
71105;BME280;58760;48.716;8.962;2023-02-22T03:09:44;96255.91;;;3.05;88.36
71105;BME280;58760;48.716;8.962;2023-02-22T03:23:05;96252.44;;;2.95;88.40
71105;BME280;58760;48.716;8.962;2023-02-22T03:25:35;96251.44;;;2.96;88.66
71105;BME280;58760;48.716;8.962;2023-02-22T03:28:08;96247.47;;;2.92;88.78
71105;BME280;58760;48.716;8.962;2023-02-22T03:30:47;96247.56;;;2.91;88.92
71105;BME280;58760;48.716;8.962;2023-02-22T03:33:29;96245.22;;;2.88;89.09
71105;BME280;58760;48.716;8.962;2023-02-22T03:36:21;96245.22;;;2.88;89.09
71105;BME280;58760;48.716;8.962;2023-02-22T03:38:50;96242.19;;;2.83;89.03
71105;BME280;58760;48.716;8.962;2023-02-22T03:41:22;96241.19;;;2.84;89.37
71105;BME280;58760;48.716;8.962;2023-02-22T03:44:07;96236.69;;;2.86;89.44
71105;BME280;58760;48.716;8.962;2023-02-22T03:46:34;96232.78;;;2.80;89.32
71105;BME280;58760;48.716;8.962;2023-02-22T03:49:10;96239.13;;;2.78;89.32
71105;BME280;58760;48.716;8.962;2023-02-22T03:51:37;96235.25;;;2.72;89.32
71105;BME280;58760;48.716;8.962;2023-02-22T03:54:05;96233.28;;;2.64;89.03
71105;BME280;58760;48.716;8.962;2023-02-22T03:56:34;96248.03;;;2.66;89.40
71105;BME280;58760;48.716;8.962;2023-02-22T03:59:08;96241.59;;;2.70;89.70
71105;BME280;58760;48.716;8.962;2023-02-22T04:01:34;96238.53;;;2.74;89.90
71105;BME280;58760;48.716;8.962;2023-02-22T04:04:00;96237.97;;;2.71;90.05
71105;BME280;58760;48.716;8.962;2023-02-22T04:06:26;96232.06;;;2.69;90.09
71105;BME280;58760;48.716;8.962;2023-02-22T04:08:52;96236.47;;;2.68;90.07
71105;BME280;58760;48.716;8.962;2023-02-22T04:11:17;96234.09;;;2.65;90.01
71105;BME280;58760;48.716;8.962;2023-02-22T04:13:43;96234.22;;;2.63;90.09
71105;BME280;58760;48.716;8.962;2023-02-22T04:16:08;96234.63;;;2.59;90.33
71105;BME280;58760;48.716;8.962;2023-02-22T04:18:34;96240.41;;;2.53;90.16
71105;BME280;58760;48.716;8.962;2023-02-22T04:20:59;96232.44;;;2.64;90.20
71105;BME280;58760;48.716;8.962;2023-02-22T04:23:24;96239.34;;;2.65;90.53
71105;BME280;58760;48.716;8.962;2023-02-22T04:25:51;96228.44;;;2.60;90.52
71105;BME280;58760;48.716;8.962;2023-02-22T04:28:17;96227.63;;;2.59;90.98
71105;BME280;58760;48.716;8.962;2023-02-22T04:30:42;96230.34;;;2.58;90.72
71105;BME280;58760;48.716;8.962;2023-02-22T04:33:08;96229.66;;;2.56;90.93
71105;BME280;58760;48.716;8.962;2023-02-22T04:35:35;96226.31;;;2.54;90.91
71105;BME280;58760;48.716;8.962;2023-02-22T04:38:00;96224.25;;;2.48;90.84
71105;BME280;58760;48.716;8.962;2023-02-22T04:40:26;96232.34;;;2.45;91.00
71105;BME280;58760;48.716;8.962;2023-02-22T04:42:52;96228.47;;;2.39;91.30
71105;BME280;58760;48.716;8.962;2023-02-22T04:45:17;96225.72;;;2.41;91.73
71105;BME280;58760;48.716;8.962;2023-02-22T04:47:43;96228.22;;;2.42;91.87
71105;BME280;58760;48.716;8.962;2023-02-22T04:50:09;96220.94;;;2.46;91.99
71105;BME280;58760;48.716;8.962;2023-02-22T04:52:35;96227.16;;;2.54;91.68
71105;BME280;58760;48.716;8.962;2023-02-22T04:55:00;96227.44;;;2.51;91.20
71105;BME280;58760;48.716;8.962;2023-02-22T04:57:26;96223.41;;;2.47;91.59
71105;BME280;58760;48.716;8.962;2023-02-22T04:59:51;96222.59;;;2.47;91.67
71105;BME280;58760;48.716;8.962;2023-02-22T05:02:17;96217.78;;;2.52;91.62
71105;BME280;58760;48.716;8.962;2023-02-22T05:04:44;96221.97;;;2.64;91.54
71105;BME280;58760;48.716;8.962;2023-02-22T05:07:09;96225.88;;;2.70;90.83
71105;BME280;58760;48.716;8.962;2023-02-22T05:09:35;96217.84;;;2.71;90.68
71105;BME280;58760;48.716;8.962;2023-02-22T05:12:00;96218.97;;;2.69;90.65
71105;BME280;58760;48.716;8.962;2023-02-22T05:14:25;96213.31;;;2.73;90.81
71105;BME280;58760;48.716;8.962;2023-02-22T05:16:54;96207.38;;;2.71;90.68
71105;BME280;58760;48.716;8.962;2023-02-22T05:19:20;96212.88;;;2.68;90.75
71105;BME280;58760;48.716;8.962;2023-02-22T05:21:45;96215.78;;;2.65;90.88
71105;BME280;58760;48.716;8.962;2023-02-22T05:24:10;96207.34;;;2.61;90.75
71105;BME280;58760;48.716;8.962;2023-02-22T05:26:36;96214.53;;;2.59;90.94
71105;BME280;58760;48.716;8.962;2023-02-22T05:29:01;96212.72;;;2.60;91.13
71105;BME280;58760;48.716;8.962;2023-02-22T05:31:27;96207.22;;;2.63;90.80
71105;BME280;58760;48.716;8.962;2023-02-22T05:33:52;96207.19;;;2.53;90.52
71105;BME280;58760;48.716;8.962;2023-02-22T05:36:17;96192.78;;;2.38;90.07
71105;BME280;58760;48.716;8.962;2023-02-22T05:38:43;96201.03;;;2.34;89.69
71105;BME280;58760;48.716;8.962;2023-02-22T05:41:10;96202.31;;;2.39;90.10
71105;BME280;58760;48.716;8.962;2023-02-22T05:43:37;96196.22;;;2.39;89.67
71105;BME280;58760;48.716;8.962;2023-02-22T05:46:02;96199.44;;;2.22;88.72
71105;BME280;58760;48.716;8.962;2023-02-22T05:48:28;96197.50;;;2.14;89.05
71105;BME280;58760;48.716;8.962;2023-02-22T05:50:53;96198.59;;;2.21;89.76
71105;BME280;58760;48.716;8.962;2023-02-22T05:53:20;96198.59;;;2.21;89.71
71105;BME280;58760;48.716;8.962;2023-02-22T05:55:45;96197.53;;;2.24;89.87
71105;BME280;58760;48.716;8.962;2023-02-22T05:58:10;96197.53;;;2.24;90.51
71105;BME280;58760;48.716;8.962;2023-02-22T06:00:36;96199.63;;;2.30;90.83
71105;BME280;58760;48.716;8.962;2023-02-22T06:03:07;96192.94;;;2.37;90.52
71105;BME280;58760;48.716;8.962;2023-02-22T06:05:33;96194.88;;;2.44;90.37
71105;BME280;58760;48.716;8.962;2023-02-22T06:08:00;96193.94;;;2.55;89.99
71105;BME280;58760;48.716;8.962;2023-02-22T06:10:26;96196.41;;;2.47;89.97
71105;BME280;58760;48.716;8.962;2023-02-22T06:12:52;96190.91;;;2.50;90.39
71105;BME280;58760;48.716;8.962;2023-02-22T06:15:19;96188.28;;;2.50;90.11
71105;BME280;58760;48.716;8.962;2023-02-22T06:17:46;96193.66;;;2.48;90.39
71105;BME280;58760;48.716;8.962;2023-02-22T06:20:14;96189.00;;;2.61;89.99
71105;BME280;58760;48.716;8.962;2023-02-22T06:22:39;96192.19;;;2.65;89.50
71105;BME280;58760;48.716;8.962;2023-02-22T06:25:13;96197.44;;;2.65;89.01
71105;BME280;58760;48.716;8.962;2023-02-22T06:27:38;96195.22;;;2.70;89.31
71105;BME280;58760;48.716;8.962;2023-02-22T06:30:04;96195.50;;;2.67;88.96
71105;BME280;58760;48.716;8.962;2023-02-22T06:32:30;96195.78;;;2.64;89.21
71105;BME280;58760;48.716;8.962;2023-02-22T06:34:55;96196.59;;;2.64;89.24
71105;BME280;58760;48.716;8.962;2023-02-22T06:37:21;96204.88;;;2.60;89.32
71105;BME280;58760;48.716;8.962;2023-02-22T06:39:46;96202.13;;;2.71;89.13
71105;BME280;58760;48.716;8.962;2023-02-22T06:42:11;96203.81;;;2.72;89.09
71105;BME280;58760;48.716;8.962;2023-02-22T06:44:37;96214.97;;;2.74;88.78
71105;BME280;58760;48.716;8.962;2023-02-22T06:47:02;96211.66;;;2.72;88.64
71105;BME280;58760;48.716;8.962;2023-02-22T06:49:27;96206.47;;;2.82;88.72
71105;BME280;58760;48.716;8.962;2023-02-22T06:51:53;96205.53;;;2.92;88.51
71105;BME280;58760;48.716;8.962;2023-02-22T06:54:20;96213.25;;;2.94;88.06
71105;BME280;58760;48.716;8.962;2023-02-22T06:56:45;96222.88;;;2.93;88.06
71105;BME280;58760;48.716;8.962;2023-02-22T06:59:11;96220.16;;;2.95;88.07
71105;BME280;58760;48.716;8.962;2023-02-22T07:01:39;96218.50;;;3.03;88.07
71105;BME280;58760;48.716;8.962;2023-02-22T07:04:05;96224.31;;;3.16;88.12
71105;BME280;58760;48.716;8.962;2023-02-22T07:06:30;96221.59;;;3.28;87.89
71105;BME280;58760;48.716;8.962;2023-02-22T07:08:56;96220.34;;;3.32;86.75
71105;BME280;58760;48.716;8.962;2023-02-22T07:11:21;96228.22;;;3.32;87.30
71105;BME280;58760;48.716;8.962;2023-02-22T07:13:46;96219.38;;;3.33;87.24
71105;BME280;58760;48.716;8.962;2023-02-22T07:16:12;96225.88;;;3.38;87.69
71105;BME280;58760;48.716;8.962;2023-02-22T07:18:37;96217.06;;;3.49;87.17
71105;BME280;58760;48.716;8.962;2023-02-22T07:21:03;96216.66;;;3.53;87.27
71105;BME280;58760;48.716;8.962;2023-02-22T07:23:28;96214.44;;;3.58;87.37
71105;BME280;58760;48.716;8.962;2023-02-22T07:25:53;96216.50;;;3.64;87.10
71105;BME280;58760;48.716;8.962;2023-02-22T07:28:19;96217.88;;;3.78;86.87
71105;BME280;58760;48.716;8.962;2023-02-22T07:30:44;96220.38;;;3.89;87.00
71105;BME280;58760;48.716;8.962;2023-02-22T07:33:10;96226.16;;;4.02;86.77
71105;BME280;58760;48.716;8.962;2023-02-22T07:35:37;96227.09;;;4.11;86.39
71105;BME280;58760;48.716;8.962;2023-02-22T07:38:04;96226.28;;;4.10;83.54
71105;BME280;58760;48.716;8.962;2023-02-22T07:40:30;96223.00;;;3.99;83.21
71105;BME280;58760;48.716;8.962;2023-02-22T07:42:57;96216.91;;;3.98;82.62
71105;BME280;58760;48.716;8.962;2023-02-22T07:45:25;96214.50;;;4.24;82.93
71105;BME280;58760;48.716;8.962;2023-02-22T07:47:51;96216.81;;;4.37;83.09
71105;BME280;58760;48.716;8.962;2023-02-22T07:50:17;96223.63;;;4.66;83.71
71105;BME280;58760;48.716;8.962;2023-02-22T07:52:44;96226.72;;;4.89;83.57
71105;BME280;58760;48.716;8.962;2023-02-22T07:55:12;96227.31;;;5.10;82.97
71105;BME280;58760;48.716;8.962;2023-02-22T07:57:37;96226.75;;;5.16;81.97
71105;BME280;58760;48.716;8.962;2023-02-22T08:00:03;96226.91;;;5.33;82.36
71105;BME280;58760;48.716;8.962;2023-02-22T08:02:29;96221.53;;;5.52;81.81
71105;BME280;58760;48.716;8.962;2023-02-22T08:04:54;96220.84;;;5.67;81.29
71105;BME280;58760;48.716;8.962;2023-02-22T08:07:20;96223.53;;;5.75;80.93
71105;BME280;58760;48.716;8.962;2023-02-22T08:09:45;96217.94;;;5.88;80.74
71105;BME280;58760;48.716;8.962;2023-02-22T08:12:10;96226.81;;;5.87;80.81
71105;BME280;58760;48.716;8.962;2023-02-22T08:14:35;96214.41;;;5.97;80.61
71105;BME280;58760;48.716;8.962;2023-02-22T08:17:01;96215.75;;;6.01;80.63
71105;BME280;58760;48.716;8.962;2023-02-22T08:19:26;96224.75;;;6.16;80.07
71105;BME280;58760;48.716;8.962;2023-02-22T08:21:52;96209.88;;;6.59;78.85
71105;BME280;58760;48.716;8.962;2023-02-22T08:24:17;96218.59;;;6.85;77.20
71105;BME280;58760;48.716;8.962;2023-02-22T08:26:45;96212.88;;;6.64;78.68
71105;BME280;58760;48.716;8.962;2023-02-22T08:29:11;96207.44;;;6.99;77.22
71105;BME280;58760;48.716;8.962;2023-02-22T08:31:39;96213.78;;;6.80;78.47
71105;BME280;58760;48.716;8.962;2023-02-22T08:34:04;96217.94;;;7.25;77.28
71105;BME280;58760;48.716;8.962;2023-02-22T08:36:30;96214.81;;;7.29;75.67
71105;BME280;58760;48.716;8.962;2023-02-22T08:38:57;96215.22;;;7.51;75.94
71105;BME280;58760;48.716;8.962;2023-02-22T08:41:22;96208.59;;;7.47;76.18
71105;BME280;58760;48.716;8.962;2023-02-22T08:43:48;96215.91;;;7.61;75.98
71105;BME280;58760;48.716;8.962;2023-02-22T08:46:15;96208.59;;;7.47;76.46
71105;BME280;58760;48.716;8.962;2023-02-22T08:48:49;96217.19;;;7.57;77.07
71105;BME280;58760;48.716;8.962;2023-02-22T08:51:14;96208.91;;;7.44;77.75
71105;BME280;58760;48.716;8.962;2023-02-22T08:53:40;96206.94;;;7.46;77.92
71105;BME280;58760;48.716;8.962;2023-02-22T08:56:05;96209.63;;;7.78;76.81
71105;BME280;58760;48.716;8.962;2023-02-22T08:58:31;96202.84;;;7.75;77.61
71105;BME280;58760;48.716;8.962;2023-02-22T09:00:56;96212.75;;;7.81;77.60
71105;BME280;58760;48.716;8.962;2023-02-22T09:03:22;96204.34;;;7.94;77.14
71105;BME280;58760;48.716;8.962;2023-02-22T09:05:47;96208.97;;;8.00;77.20
71105;BME280;58760;48.716;8.962;2023-02-22T09:08:15;96210.81;;;8.16;77.61
71105;BME280;58760;48.716;8.962;2023-02-22T09:10:40;96209.31;;;8.21;77.76
71105;BME280;58760;48.716;8.962;2023-02-22T09:13:06;96208.97;;;8.65;76.31
71105;BME280;58760;48.716;8.962;2023-02-22T09:15:32;96210.25;;;8.77;76.05
71105;BME280;58760;48.716;8.962;2023-02-22T09:18:00;96205.97;;;8.68;76.62
71105;BME280;58760;48.716;8.962;2023-02-22T09:20:26;96198.94;;;8.99;75.15
71105;BME280;58760;48.716;8.962;2023-02-22T09:22:52;96197.59;;;9.03;76.16
71105;BME280;58760;48.716;8.962;2023-02-22T09:25:18;96193.41;;;9.17;76.34
71105;BME280;58760;48.716;8.962;2023-02-22T09:27:48;96202.56;;;9.37;74.96
71105;BME280;58760;48.716;8.962;2023-02-22T09:30:24;96196.06;;;9.48;73.04
71105;BME280;58760;48.716;8.962;2023-02-22T09:32:56;96197.16;;;9.84;71.10
71105;BME280;58760;48.716;8.962;2023-02-22T09:35:22;96198.25;;;10.12;66.96
71105;BME280;58760;48.716;8.962;2023-02-22T09:37:58;96183.81;;;10.37;65.70
71105;BME280;58760;48.716;8.962;2023-02-22T09:40:32;96184.31;;;10.56;64.46
71105;BME280;58760;48.716;8.962;2023-02-22T09:51:16;96173.31;;;11.02;60.89
71105;BME280;58760;48.716;8.962;2023-02-22T09:53:44;96164.66;;;11.09;61.16
71105;BME280;58760;48.716;8.962;2023-02-22T09:56:17;96168.28;;;11.22;61.05
71105;BME280;58760;48.716;8.962;2023-02-22T09:58:49;96167.06;;;11.39;59.93
71105;BME280;58760;48.716;8.962;2023-02-22T10:01:32;96161.41;;;11.64;58.54
71105;BME280;58760;48.716;8.962;2023-02-22T10:04:05;96160.31;;;11.58;59.12
71105;BME280;58760;48.716;8.962;2023-02-22T10:06:36;96154.47;;;11.84;57.70
71105;BME280;58760;48.716;8.962;2023-02-22T10:09:03;96165.63;;;11.94;56.77
71105;BME280;58760;48.716;8.962;2023-02-22T10:11:54;96163.22;;;11.99;57.05
71105;BME280;58760;48.716;8.962;2023-02-22T10:25:15;96165.25;;;12.46;56.94
71105;BME280;58760;48.716;8.962;2023-02-22T10:27:59;96156.88;;;12.77;54.18
71105;BME280;58760;48.716;8.962;2023-02-22T10:30:34;96153.63;;;12.88;54.29
71105;BME280;58760;48.716;8.962;2023-02-22T10:33:19;96155.13;;;12.90;52.25
71105;BME280;58760;48.716;8.962;2023-02-22T10:35:45;96154.91;;;12.92;51.81
71105;BME280;58760;48.716;8.962;2023-02-22T10:38:20;96156.56;;;12.93;52.29
71105;BME280;58760;48.716;8.962;2023-02-22T10:43:26;96143.97;;;13.15;51.86
71105;BME280;58760;48.716;8.962;2023-02-22T10:45:54;96146.03;;;13.13;51.80
71105;BME280;58760;48.716;8.962;2023-02-22T10:48:21;96144.41;;;13.18;51.46
71105;BME280;58760;48.716;8.962;2023-02-22T10:50:48;96146.91;;;13.20;50.72
71105;BME280;58760;48.716;8.962;2023-02-22T10:53:17;96143.03;;;13.29;50.50
71105;BME280;58760;48.716;8.962;2023-02-22T10:58:42;96146.56;;;13.42;49.90
71105;BME280;58760;48.716;8.962;2023-02-22T11:04:15;96138.69;;;13.82;48.67
71105;BME280;58760;48.716;8.962;2023-02-22T11:06:46;96131.50;;;13.95;48.87
71105;BME280;58760;48.716;8.962;2023-02-22T11:09:21;96139.09;;;13.92;48.09
71105;BME280;58760;48.716;8.962;2023-02-22T11:11:48;96127.00;;;14.02;48.07
71105;BME280;58760;48.716;8.962;2023-02-22T11:14:25;96122.91;;;14.33;47.56
71105;BME280;58760;48.716;8.962;2023-02-22T11:16:52;96117.38;;;14.34;47.68
71105;BME280;58760;48.716;8.962;2023-02-22T11:19:21;96120.03;;;14.54;48.59
71105;BME280;58760;48.716;8.962;2023-02-22T11:21:50;96104.84;;;14.54;47.22
71105;BME280;58760;48.716;8.962;2023-02-22T11:24:18;96112.44;;;14.57;46.79
71105;BME280;58760;48.716;8.962;2023-02-22T11:26:55;96106.66;;;14.60;46.41
71105;BME280;58760;48.716;8.962;2023-02-22T11:29:26;96098.25;;;14.63;46.32
71105;BME280;58760;48.716;8.962;2023-02-22T11:31:53;96097.59;;;14.88;45.33
71105;BME280;58760;48.716;8.962;2023-02-22T11:34:28;96099.38;;;15.07;45.54
71105;BME280;58760;48.716;8.962;2023-02-22T11:36:55;96089.03;;;15.17;45.35
71105;BME280;58760;48.716;8.962;2023-02-22T11:39:25;96087.34;;;15.29;45.04
71105;BME280;58760;48.716;8.962;2023-02-22T11:41:51;96085.34;;;15.18;45.32
71105;BME280;58760;48.716;8.962;2023-02-22T11:44:24;96083.09;;;15.15;45.61
71105;BME280;58760;48.716;8.962;2023-02-22T11:46:50;96077.66;;;15.28;45.94
71105;BME280;58760;48.716;8.962;2023-02-22T11:49:22;96075.13;;;15.46;44.38
71105;BME280;58760;48.716;8.962;2023-02-22T11:52:30;96068.94;;;15.52;44.48
71105;BME280;58760;48.716;8.962;2023-02-22T11:55:08;96060.84;;;15.65;44.76
71105;BME280;58760;48.716;8.962;2023-02-22T12:00:44;96056.34;;;15.91;44.28
71105;BME280;58760;48.716;8.962;2023-02-22T12:17:51;96044.63;;;18.85;39.04
71105;BME280;58760;48.716;8.962;2023-02-22T12:23:01;96039.41;;;19.86;38.12
71105;BME280;58760;48.716;8.962;2023-02-22T12:25:36;96035.84;;;20.30;36.64
71105;BME280;58760;48.716;8.962;2023-02-22T12:28:15;96034.13;;;20.58;36.28
71105;BME280;58760;48.716;8.962;2023-02-22T12:30:47;96030.16;;;20.65;35.99
71105;BME280;58760;48.716;8.962;2023-02-22T12:33:20;96036.66;;;20.31;36.31
71105;BME280;58760;48.716;8.962;2023-02-22T12:35:51;96034.53;;;20.33;36.32
71105;BME280;58760;48.716;8.962;2023-02-22T12:38:34;96023.84;;;20.76;36.39
71105;BME280;58760;48.716;8.962;2023-02-22T12:41:08;96025.72;;;21.14;35.28
71105;BME280;58760;48.716;8.962;2023-02-22T12:43:52;96033.06;;;21.19;35.39
71105;BME280;58760;48.716;8.962;2023-02-22T12:46:30;96029.38;;;21.78;34.24
71105;BME280;58760;48.716;8.962;2023-02-22T12:49:19;96028.16;;;22.18;34.00
71105;BME280;58760;48.716;8.962;2023-02-22T12:52:09;96025.53;;;23.02;32.17
71105;BME280;58760;48.716;8.962;2023-02-22T12:54:51;96017.41;;;23.64;31.59
71105;BME280;58760;48.716;8.962;2023-02-22T12:57:25;96019.06;;;23.85;31.12
71105;BME280;58760;48.716;8.962;2023-02-22T12:59:56;96030.13;;;22.64;33.00
71105;BME280;58760;48.716;8.962;2023-02-22T13:02:27;96031.81;;;20.16;36.88
71105;BME280;58760;48.716;8.962;2023-02-22T13:04:55;96034.44;;;18.87;39.51
71105;BME280;58760;48.716;8.962;2023-02-22T13:10:26;96039.25;;;17.14;42.96
71105;BME280;58760;48.716;8.962;2023-02-22T13:13:01;96042.56;;;16.80;44.19
71105;BME280;58760;48.716;8.962;2023-02-22T13:23:45;96031.19;;;17.14;44.01
71105;BME280;58760;48.716;8.962;2023-02-22T13:28:53;96027.56;;;18.21;41.54
71105;BME280;58760;48.716;8.962;2023-02-22T13:34:27;96030.44;;;17.85;41.85
71105;BME280;58760;48.716;8.962;2023-02-22T13:42:35;96012.50;;;18.20;41.28
71105;BME280;58760;48.716;8.962;2023-02-22T13:48:12;96015.63;;;17.94;42.02
71105;BME280;58760;48.716;8.962;2023-02-22T13:53:28;96017.09;;;18.66;40.48
71105;BME280;58760;48.716;8.962;2023-02-22T13:55:58;96014.72;;;19.21;39.81
71105;BME280;58760;48.716;8.962;2023-02-22T13:58:25;96009.25;;;20.22;37.68
71105;BME280;58760;48.716;8.962;2023-02-22T14:00:56;96009.97;;;21.06;36.70
71105;BME280;58760;48.716;8.962;2023-02-22T14:03:35;96008.94;;;21.34;35.33
71105;BME280;58760;48.716;8.962;2023-02-22T14:06:02;96013.59;;;21.38;35.14
71105;BME280;58760;48.716;8.962;2023-02-22T14:10:59;96009.84;;;20.08;37.34
71105;BME280;58760;48.716;8.962;2023-02-22T14:13:28;96014.72;;;19.77;37.72
71105;BME280;58760;48.716;8.962;2023-02-22T14:18:22;96014.59;;;18.88;39.55
71105;BME280;58760;48.716;8.962;2023-02-22T14:21:07;96008.31;;;18.59;40.22
71105;BME280;58760;48.716;8.962;2023-02-22T14:23:34;96016.47;;;18.41;41.18
71105;BME280;58760;48.716;8.962;2023-02-22T14:26:13;96015.97;;;17.86;42.57
71105;BME280;58760;48.716;8.962;2023-02-22T14:34:15;96020.50;;;17.73;42.65
71105;BME280;58760;48.716;8.962;2023-02-22T14:37:03;96018.13;;;18.42;43.17
71105;BME280;58760;48.716;8.962;2023-02-22T14:39:47;96014.38;;;18.77;40.68
71105;BME280;58760;48.716;8.962;2023-02-22T14:42:34;96011.31;;;18.86;40.38
71105;BME280;58760;48.716;8.962;2023-02-22T14:47:57;96012.63;;;18.48;41.22
71105;BME280;58760;48.716;8.962;2023-02-22T14:53:25;96007.56;;;18.87;40.57
71105;BME280;58760;48.716;8.962;2023-02-22T14:55:56;96005.06;;;19.37;38.93
71105;BME280;58760;48.716;8.962;2023-02-22T15:00:58;96008.56;;;19.09;39.73
71105;BME280;58760;48.716;8.962;2023-02-22T15:03:29;96010.88;;;18.65;40.43
71105;BME280;58760;48.716;8.962;2023-02-22T15:08:30;96013.25;;;17.74;41.44
71105;BME280;58760;48.716;8.962;2023-02-22T15:10:59;96012.97;;;17.04;43.68
71105;BME280;58760;48.716;8.962;2023-02-22T15:13:27;96014.84;;;16.86;44.05
71105;BME280;58760;48.716;8.962;2023-02-22T15:16:04;96012.59;;;16.46;45.42
71105;BME280;58760;48.716;8.962;2023-02-22T15:18:37;96013.41;;;16.29;45.97
71105;BME280;58760;48.716;8.962;2023-02-22T15:21:16;96022.41;;;16.09;45.57
71105;BME280;58760;48.716;8.962;2023-02-22T15:23:55;96012.31;;;15.62;46.50
71105;BME280;58760;48.716;8.962;2023-02-22T15:26:28;96016.94;;;15.42;47.27
71105;BME280;58760;48.716;8.962;2023-02-22T15:28:58;96019.72;;;15.22;48.37
71105;BME280;58760;48.716;8.962;2023-02-22T15:31:34;96016.28;;;15.15;48.86
71105;BME280;58760;48.716;8.962;2023-02-22T15:34:22;96017.94;;;15.09;48.77
71105;BME280;58760;48.716;8.962;2023-02-22T15:36:50;96020.69;;;14.90;48.60